createdAt,value
2019-02-16T00:01:11.442Z,1.30
2019-02-16T00:03:40.652Z,1.30
2019-02-16T00:06:09.783Z,1.20
2019-02-16T00:08:38.905Z,1.10
2019-02-16T00:11:08.153Z,1.10
2019-02-16T00:13:37.291Z,1.00
2019-02-16T00:16:06.409Z,0.90
2019-02-16T00:18:35.529Z,0.90
2019-02-16T00:21:04.711Z,0.90
2019-02-16T00:23:33.888Z,0.80
2019-02-16T00:26:03.033Z,0.80
2019-02-16T00:28:32.189Z,0.80
2019-02-16T00:31:01.331Z,0.80
2019-02-16T00:33:30.478Z,0.70
2019-02-16T00:35:59.579Z,0.70
2019-02-16T00:38:28.717Z,0.70
2019-02-16T00:40:57.865Z,0.70
2019-02-16T00:43:27.061Z,0.70
2019-02-16T00:45:56.249Z,0.70
2019-02-16T00:48:25.474Z,0.60
2019-02-16T00:50:54.596Z,0.60
2019-02-16T00:53:23.755Z,0.60
2019-02-16T00:55:52.964Z,0.50
2019-02-16T00:58:22.121Z,0.50
2019-02-16T01:00:51.352Z,0.50
2019-02-16T01:03:20.484Z,0.50
2019-02-16T01:05:49.703Z,0.40
2019-02-16T01:08:18.835Z,0.40
2019-02-16T01:10:48.086Z,0.30
2019-02-16T01:13:17.448Z,0.40
2019-02-16T01:15:46.602Z,0.40
2019-02-16T01:18:15.740Z,0.30
2019-02-16T01:20:44.856Z,0.40
2019-02-16T01:23:14.000Z,0.30
2019-02-16T01:25:43.116Z,0.30
2019-02-16T01:28:12.208Z,0.30
2019-02-16T01:30:41.353Z,0.20
2019-02-16T01:33:10.468Z,0.20
2019-02-16T01:35:39.624Z,0.20
2019-02-16T01:38:08.729Z,0.20
2019-02-16T01:40:37.961Z,0.20
2019-02-16T01:43:07.168Z,0.10
2019-02-16T01:45:36.348Z,0.10
2019-02-16T01:48:05.486Z,0.10
2019-02-16T01:50:35.070Z,0.10
2019-02-16T01:53:04.227Z,0.10
2019-02-16T01:55:33.396Z,0.00
2019-02-16T01:58:02.526Z,0.00
2019-02-16T02:00:31.710Z,0.00
2019-02-16T02:03:00.891Z,-0.10
2019-02-16T02:05:30.028Z,-0.10
2019-02-16T02:07:59.164Z,-0.10
2019-02-16T02:10:28.511Z,-0.10
2019-02-16T02:12:57.668Z,-0.10
2019-02-16T02:15:26.876Z,-0.10
2019-02-16T02:17:56.041Z,-0.20
2019-02-16T02:20:25.357Z,-0.20
2019-02-16T02:22:54.497Z,-0.30
2019-02-16T02:25:23.649Z,-0.40
2019-02-16T02:27:52.787Z,-0.60
2019-02-16T02:30:22.035Z,-0.60
2019-02-16T02:32:51.183Z,-0.50
2019-02-16T02:35:20.352Z,-0.50
2019-02-16T02:37:49.499Z,-0.50
2019-02-16T02:40:18.634Z,-0.50
2019-02-16T02:42:47.775Z,-0.50
2019-02-16T02:45:16.926Z,-0.40
2019-02-16T02:47:46.044Z,-0.40
2019-02-16T02:50:15.214Z,-0.40
2019-02-16T02:52:44.323Z,-0.40
2019-02-16T02:55:13.486Z,-0.40
2019-02-16T02:57:42.612Z,-0.40
2019-02-16T03:00:12.265Z,-0.40
2019-02-16T03:02:41.455Z,-0.40
2019-02-16T03:05:10.585Z,-0.40
2019-02-16T03:07:39.699Z,-0.40
2019-02-16T03:10:08.858Z,-0.50
2019-02-16T03:12:38.041Z,-0.50
2019-02-16T03:15:07.789Z,-0.50
2019-02-16T03:17:36.951Z,-0.50
2019-02-16T03:20:06.288Z,-0.50
2019-02-16T03:23:13.276Z,-0.50
2019-02-16T03:25:45.057Z,-0.60
2019-02-16T03:28:47.712Z,-0.60
2019-02-16T03:32:05.754Z,-0.60
2019-02-16T03:34:50.146Z,-0.60
2019-02-16T03:37:48.233Z,-0.60
2019-02-16T03:40:17.611Z,-0.70
2019-02-16T03:42:46.746Z,-0.70
2019-02-16T03:45:15.921Z,-0.80
2019-02-16T03:47:45.057Z,-0.80
2019-02-16T03:50:14.619Z,-0.80
2019-02-16T03:52:43.795Z,-0.80
2019-02-16T03:55:12.932Z,-0.80
2019-02-16T03:57:42.088Z,-0.90
2019-02-16T04:00:11.345Z,-0.90
2019-02-16T04:02:40.473Z,-0.90
2019-02-16T04:05:09.725Z,-0.90
2019-02-16T04:07:38.864Z,-0.90
2019-02-16T04:10:08.331Z,-0.90
2019-02-16T04:12:37.443Z,-0.90
2019-02-16T04:15:06.582Z,-0.90
2019-02-16T04:17:35.719Z,-0.90
2019-02-16T04:20:05.461Z,-0.90
2019-02-16T04:22:34.626Z,-0.90
2019-02-16T04:25:03.811Z,-1.00
2019-02-16T04:27:32.939Z,-1.00
2019-02-16T04:30:02.104Z,-1.10
2019-02-16T04:32:31.324Z,-1.10
2019-02-16T04:35:00.516Z,-1.10
2019-02-16T04:37:29.648Z,-1.10
2019-02-16T04:39:58.936Z,-1.10
2019-02-16T04:42:28.079Z,-1.10
2019-02-16T04:44:57.224Z,-1.10
2019-02-16T04:47:26.368Z,-1.10
2019-02-16T04:49:55.518Z,-1.10
2019-02-16T04:52:34.025Z,-1.10
2019-02-16T04:54:55.475Z,-1.10
2019-02-16T04:57:24.616Z,-1.10
2019-02-16T04:59:53.655Z,-1.10
2019-02-16T05:02:22.918Z,-1.20
2019-02-16T05:04:52.054Z,-1.20
2019-02-16T05:07:21.259Z,-1.20
2019-02-16T05:09:50.403Z,-1.20
2019-02-16T05:12:19.518Z,-1.20
2019-02-16T05:14:48.636Z,-1.20
2019-02-16T05:17:17.752Z,-1.30
2019-02-16T05:19:46.897Z,-1.30
2019-02-16T05:22:16.025Z,-1.30
2019-02-16T05:24:45.708Z,-1.30
2019-02-16T05:27:14.832Z,-1.40
2019-02-16T05:29:44.023Z,-1.40
2019-02-16T05:32:13.130Z,-1.40
2019-02-16T05:34:42.352Z,-1.40
2019-02-16T05:37:11.478Z,-1.40
2019-02-16T05:39:40.620Z,-1.40
2019-02-16T05:42:09.772Z,-1.50
2019-02-16T05:44:38.876Z,-1.50
2019-02-16T05:47:08.070Z,-1.50
2019-02-16T05:49:37.266Z,-1.50
2019-02-16T05:52:06.387Z,-1.50
2019-02-16T05:54:35.546Z,-1.50
2019-02-16T05:57:04.680Z,-1.50
2019-02-16T05:59:33.828Z,-1.50
2019-02-16T06:02:02.964Z,-1.50
2019-02-16T06:04:32.098Z,-1.60
2019-02-16T06:07:01.197Z,-1.60
2019-02-16T06:09:30.356Z,-1.60
2019-02-16T06:11:59.467Z,-1.60
2019-02-16T06:14:28.584Z,-1.60
2019-02-16T06:16:57.731Z,-1.60
2019-02-16T06:19:26.868Z,-1.60
2019-02-16T06:21:56.023Z,-1.60
2019-02-16T06:24:25.200Z,-1.70
2019-02-16T06:26:54.328Z,-1.70
2019-02-16T06:29:23.496Z,-1.70
2019-02-16T06:31:52.604Z,-1.70
2019-02-16T06:34:21.741Z,-1.70
2019-02-16T06:36:50.952Z,-1.70
2019-02-16T06:39:20.082Z,-1.70
2019-02-16T06:41:49.350Z,-1.70
2019-02-16T06:44:18.582Z,-1.70
2019-02-16T06:46:47.753Z,-1.70
2019-02-16T06:49:16.872Z,-1.70
2019-02-16T06:51:46.028Z,-1.70
2019-02-16T06:54:15.389Z,-1.70
2019-02-16T06:57:02.087Z,-1.70
2019-02-16T06:59:31.222Z,-1.70
2019-02-16T07:02:00.328Z,-1.60
2019-02-16T07:04:29.633Z,-1.60
2019-02-16T07:06:58.768Z,-1.60
2019-02-16T07:09:27.937Z,-1.60
2019-02-16T07:11:57.147Z,-1.50
2019-02-16T07:14:26.300Z,-1.50
2019-02-16T07:17:20.375Z,-1.50
2019-02-16T07:19:52.658Z,-1.50
2019-02-16T07:22:21.803Z,-1.40
2019-02-16T07:24:50.930Z,-1.40
2019-02-16T07:27:20.144Z,-1.40
2019-02-16T07:29:49.466Z,-1.30
2019-02-16T07:32:18.979Z,-1.30
2019-02-16T07:34:48.100Z,-1.30
2019-02-16T07:37:17.248Z,-1.30
2019-02-16T07:39:46.384Z,-1.20
2019-02-16T07:42:15.533Z,-1.20
2019-02-16T07:45:09.664Z,-1.10
2019-02-16T07:48:00.962Z,-1.10
2019-02-16T07:50:39.129Z,-1.00
2019-02-16T07:53:31.402Z,-1.00
2019-02-16T07:56:15.945Z,-1.00
2019-02-16T07:59:11.159Z,-0.90
2019-02-16T08:01:47.120Z,-0.80
2019-02-16T08:04:34.384Z,-0.80
2019-02-16T08:07:21.439Z,-0.70
2019-02-16T08:10:12.663Z,-0.70
2019-02-16T08:13:06.627Z,-0.60
2019-02-16T08:16:07.158Z,-0.60
2019-02-16T08:18:51.635Z,-0.50
2019-02-16T08:21:38.456Z,-0.40
2019-02-16T08:24:42.022Z,-0.40
2019-02-16T08:27:38.121Z,-0.30
2019-02-16T08:30:32.439Z,-0.20
2019-02-16T08:33:12.748Z,-0.20
2019-02-16T08:36:00.946Z,-0.10
2019-02-16T08:38:58.255Z,0.00
2019-02-16T08:41:39.792Z,0.10
2019-02-16T08:44:17.640Z,0.20
2019-02-16T08:47:20.832Z,0.30
2019-02-16T08:50:07.703Z,0.40
2019-02-16T08:52:48.281Z,0.60
2019-02-16T08:55:40.263Z,0.70
2019-02-16T08:58:40.457Z,0.80
2019-02-16T09:01:23.293Z,0.90
2019-02-16T09:04:14.223Z,1.00
2019-02-16T09:07:06.000Z,1.30
2019-02-16T09:09:47.196Z,1.40
2019-02-16T09:12:29.803Z,1.60
2019-02-16T09:15:22.536Z,1.80
2019-02-16T09:18:07.749Z,2.00
2019-02-16T09:20:55.940Z,2.20
2019-02-16T09:23:47.052Z,2.30
2019-02-16T09:26:26.829Z,2.50
2019-02-16T09:29:27.308Z,2.60
2019-02-16T09:32:14.107Z,2.80
2019-02-16T09:34:51.299Z,2.90
2019-02-16T09:37:28.873Z,3.10
2019-02-16T09:40:23.031Z,3.20
2019-02-16T09:43:09.768Z,3.30
2019-02-16T09:45:54.484Z,3.50
2019-02-16T09:48:29.116Z,3.70
2019-02-16T09:51:26.540Z,3.90
2019-02-16T09:54:17.906Z,4.00
2019-02-16T09:57:09.150Z,4.20
2019-02-16T10:00:06.543Z,4.30
2019-02-16T10:02:46.204Z,4.40
2019-02-16T10:05:27.164Z,4.40
2019-02-16T10:08:24.572Z,4.70
2019-02-16T10:11:11.386Z,4.90
2019-02-16T10:13:58.566Z,5.10
2019-02-16T10:16:49.746Z,5.20
2019-02-16T10:19:36.896Z,5.50
2019-02-16T10:22:28.096Z,5.60
2019-02-16T10:25:19.336Z,5.90
2019-02-16T10:28:07.540Z,6.10
2019-02-16T10:30:54.700Z,6.20
2019-02-16T10:33:36.200Z,6.40
2019-02-16T10:36:24.375Z,6.60
2019-02-16T10:39:30.618Z,6.80
2019-02-16T10:42:13.627Z,7.00
2019-02-16T10:44:59.717Z,7.20
2019-02-16T10:47:45.287Z,7.40
2019-02-16T10:50:32.005Z,7.60
2019-02-16T10:53:19.237Z,7.90
2019-02-16T10:56:04.663Z,8.20
2019-02-16T10:58:43.743Z,8.40
2019-02-16T11:01:34.967Z,8.60
2019-02-16T11:04:26.162Z,8.80
2019-02-16T11:07:00.239Z,9.10
2019-02-16T11:09:47.273Z,9.20
2019-02-16T11:12:25.289Z,9.50
2019-02-16T11:15:22.739Z,9.70
2019-02-16T11:18:09.743Z,9.90
2019-02-16T11:20:56.776Z,10.00
2019-02-16T11:23:53.200Z,10.30
2019-02-16T11:26:50.360Z,10.50
2019-02-16T11:29:38.539Z,10.70
2019-02-16T11:32:32.791Z,10.90
2019-02-16T11:35:35.999Z,11.10
2019-02-16T11:38:36.242Z,11.30
2019-02-16T11:41:24.476Z,11.60
2019-02-16T11:44:21.496Z,11.80
2019-02-16T11:47:03.343Z,12.10
2019-02-16T11:49:48.482Z,12.30
2019-02-16T11:52:33.758Z,12.60
2019-02-16T11:55:12.364Z,13.00
2019-02-16T11:57:57.873Z,13.30
2019-02-16T12:00:40.242Z,13.50
2019-02-16T12:03:27.561Z,13.50
2019-02-16T12:06:13.415Z,13.70
2019-02-16T12:08:58.731Z,13.80
2019-02-16T12:11:55.773Z,14.00
2019-02-16T12:14:43.952Z,14.10
2019-02-16T12:17:26.844Z,14.00
2019-02-16T12:20:10.071Z,14.10
2019-02-16T12:22:44.933Z,14.10
2019-02-16T12:25:26.283Z,14.30
2019-02-16T12:28:14.170Z,14.30
2019-02-16T12:30:53.044Z,14.50
2019-02-16T12:33:43.463Z,14.80
2019-02-16T12:36:40.714Z,14.80
2019-02-16T12:39:31.442Z,14.90
2019-02-16T12:42:10.214Z,14.90
2019-02-16T12:45:01.417Z,14.90
2019-02-16T12:48:04.710Z,15.10
2019-02-16T12:50:39.564Z,15.30
2019-02-16T12:53:26.373Z,15.50
2019-02-16T12:56:09.759Z,15.60
2019-02-16T12:59:03.820Z,15.70
2019-02-16T13:01:40.088Z,15.60
2019-02-16T13:04:31.044Z,15.30
2019-02-16T13:07:21.973Z,15.60
2019-02-16T13:10:10.223Z,15.70
2019-02-16T13:13:07.500Z,15.70
2019-02-16T13:15:58.569Z,15.80
2019-02-16T13:19:02.005Z,16.00
2019-02-16T13:21:35.974Z,15.90
2019-02-16T13:24:29.529Z,16.20
2019-02-16T13:27:14.019Z,16.40
2019-02-16T13:30:08.152Z,16.50
2019-02-16T13:33:08.295Z,16.60
2019-02-16T13:36:10.348Z,16.80
2019-02-16T13:38:57.203Z,16.80
2019-02-16T13:41:48.593Z,17.00
2019-02-16T13:44:27.452Z,17.10
2019-02-16T13:47:13.880Z,17.10
2019-02-16T13:50:05.111Z,16.90
2019-02-16T13:52:46.051Z,16.80
2019-02-16T13:55:36.111Z,17.20
2019-02-16T13:58:19.673Z,17.40
2019-02-16T14:01:07.979Z,17.40
2019-02-16T14:03:48.065Z,17.30
2019-02-16T14:06:26.326Z,17.30
2019-02-16T14:09:01.056Z,17.50
2019-02-16T14:11:45.063Z,17.70
2019-02-16T14:14:32.088Z,17.60
2019-02-16T14:17:23.293Z,17.90
2019-02-16T14:19:52.471Z,17.90
2019-02-16T14:22:21.670Z,17.70
2019-02-16T14:24:54.248Z,17.80
2019-02-16T14:27:23.464Z,17.80
2019-02-16T14:29:52.668Z,17.80
2019-02-16T14:32:21.832Z,17.90
2019-02-16T14:34:50.999Z,17.40
2019-02-16T14:37:37.883Z,17.60
2019-02-16T14:40:07.096Z,17.80
2019-02-16T14:42:36.277Z,17.80
2019-02-16T14:45:06.201Z,17.60
2019-02-16T14:47:35.358Z,17.40
2019-02-16T14:50:04.802Z,17.40
2019-02-16T14:52:33.932Z,17.70
2019-02-16T14:55:05.904Z,17.70
2019-02-16T14:57:35.041Z,17.50
2019-02-16T15:00:04.348Z,17.40
2019-02-16T15:02:33.541Z,17.40
2019-02-16T15:05:02.736Z,17.20
2019-02-16T15:07:31.948Z,17.20
2019-02-16T15:10:01.176Z,17.40
2019-02-16T15:12:30.320Z,17.70
2019-02-16T15:14:59.489Z,17.40
2019-02-16T15:17:28.831Z,17.60
2019-02-16T15:19:57.963Z,17.80
2019-02-16T15:22:27.120Z,17.90
2019-02-16T15:24:56.256Z,17.90
2019-02-16T15:27:25.451Z,18.00
2019-02-16T15:29:54.632Z,17.90
2019-02-16T15:32:23.783Z,17.70
2019-02-16T15:34:52.954Z,17.60
2019-02-16T15:37:22.099Z,17.60
2019-02-16T15:39:51.274Z,17.60
2019-02-16T15:42:20.414Z,17.60
2019-02-16T15:44:49.561Z,17.30
2019-02-16T15:47:18.699Z,17.20
2019-02-16T15:49:47.852Z,17.40
2019-02-16T15:52:17.032Z,17.30
2019-02-16T15:54:46.166Z,17.30
2019-02-16T15:57:15.367Z,17.20
2019-02-16T15:59:44.566Z,17.30
2019-02-16T16:02:13.750Z,17.30
2019-02-16T16:04:42.918Z,17.10
2019-02-16T16:07:17.231Z,17.00
2019-02-16T16:09:56.265Z,17.00
2019-02-16T16:12:40.407Z,17.00
2019-02-16T16:15:43.105Z,17.00
2019-02-16T16:18:28.354Z,16.80
2019-02-16T16:21:11.623Z,16.80
2019-02-16T16:24:02.837Z,16.90
2019-02-16T16:26:49.873Z,16.80
2019-02-16T16:29:44.241Z,16.70
2019-02-16T16:32:31.267Z,16.40
2019-02-16T16:35:22.591Z,15.90
2019-02-16T16:38:19.879Z,15.30
2019-02-16T16:41:23.137Z,14.70
2019-02-16T16:43:59.795Z,14.30
2019-02-16T16:46:47.752Z,13.80
2019-02-16T16:49:25.228Z,13.40
2019-02-16T16:52:31.506Z,13.00
2019-02-16T16:55:19.749Z,12.80
2019-02-16T16:58:01.980Z,12.50
2019-02-16T17:00:44.184Z,12.30
2019-02-16T17:03:20.059Z,12.10
2019-02-16T17:05:58.924Z,11.90
2019-02-16T17:08:47.132Z,11.70
2019-02-16T17:11:33.866Z,11.50
2019-02-16T17:14:14.220Z,11.30
2019-02-16T17:17:14.685Z,11.20
2019-02-16T17:19:59.991Z,11.00
2019-02-16T17:22:49.006Z,10.80
2019-02-16T17:25:52.539Z,10.60
2019-02-16T17:28:47.819Z,10.40
2019-02-16T17:31:35.475Z,10.20
2019-02-16T17:34:29.716Z,10.10
2019-02-16T17:37:36.181Z,10.00
2019-02-16T17:40:12.364Z,9.80
2019-02-16T17:43:02.824Z,9.70
2019-02-16T17:45:56.836Z,9.70
2019-02-16T17:48:46.355Z,9.70
2019-02-16T17:51:31.630Z,9.60
2019-02-16T17:54:37.924Z,9.60
2019-02-16T17:57:13.313Z,9.40
2019-02-16T17:59:48.226Z,9.30
2019-02-16T18:02:25.833Z,9.20
2019-02-16T18:05:01.127Z,9.00
2019-02-16T18:07:51.712Z,8.90
2019-02-16T18:10:38.736Z,8.70
2019-02-16T18:13:33.674Z,8.50
2019-02-16T18:16:27.935Z,8.40
2019-02-16T18:19:08.960Z,8.30
2019-02-16T18:21:43.167Z,8.20
2019-02-16T18:24:40.455Z,8.20
2019-02-16T18:27:36.699Z,8.10
2019-02-16T18:30:24.114Z,7.80
2019-02-16T18:33:18.548Z,7.80
2019-02-16T18:35:56.723Z,7.70
2019-02-16T18:38:50.091Z,7.60
2019-02-16T18:41:44.971Z,7.60
2019-02-16T18:44:51.504Z,7.50
2019-02-16T18:47:33.004Z,7.40
2019-02-16T18:50:21.297Z,7.30
2019-02-16T18:53:06.532Z,7.30
2019-02-16T18:55:54.745Z,7.20
2019-02-16T18:58:42.920Z,7.10
2019-02-16T19:01:37.353Z,7.10
2019-02-16T19:04:25.454Z,7.00
2019-02-16T19:07:00.113Z,7.00
2019-02-16T19:09:48.327Z,6.90
2019-02-16T19:12:26.468Z,6.80
2019-02-16T19:15:17.394Z,6.60
2019-02-16T19:18:04.159Z,6.50
2019-02-16T19:21:07.536Z,6.50
2019-02-16T19:23:55.745Z,6.40
2019-02-16T19:26:52.843Z,6.10
2019-02-16T19:29:50.079Z,6.10
2019-02-16T19:32:28.528Z,6.10
2019-02-16T19:35:07.254Z,6.10
2019-02-16T19:37:49.422Z,6.10
2019-02-16T19:40:37.634Z,6.10
2019-02-16T19:43:17.805Z,6.00
2019-02-16T19:46:05.054Z,6.00
2019-02-16T19:48:55.688Z,5.90
2019-02-16T19:51:41.582Z,5.90
2019-02-16T19:54:33.356Z,5.80
2019-02-16T19:57:15.467Z,5.70
2019-02-16T20:00:02.624Z,5.60
2019-02-16T20:03:00.445Z,5.60
2019-02-16T20:05:51.688Z,5.50
2019-02-16T20:08:38.511Z,5.50
2019-02-16T20:11:25.315Z,5.50
2019-02-16T20:14:21.564Z,5.40
2019-02-16T20:17:10.199Z,5.30
2019-02-16T20:20:10.480Z,5.20
2019-02-16T20:23:04.448Z,5.10
2019-02-16T20:25:44.386Z,5.10
2019-02-16T20:28:35.497Z,5.00
2019-02-16T20:31:10.637Z,5.00
2019-02-16T20:33:52.576Z,4.90
2019-02-16T20:36:39.413Z,4.90
2019-02-16T20:39:17.507Z,4.80
2019-02-16T20:42:10.806Z,4.80
2019-02-16T20:44:57.962Z,4.70
2019-02-16T20:47:33.582Z,4.60
2019-02-16T20:50:36.797Z,4.50
2019-02-16T20:53:20.009Z,4.50
2019-02-16T20:55:58.416Z,4.50
2019-02-16T20:58:38.773Z,4.40
2019-02-16T21:01:25.955Z,4.30
2019-02-16T21:04:12.266Z,4.20
2019-02-16T21:07:00.447Z,4.20
2019-02-16T21:09:41.224Z,4.10
2019-02-16T21:12:29.382Z,4.00
2019-02-16T21:15:17.665Z,4.00
2019-02-16T21:17:58.219Z,3.90
2019-02-16T21:20:46.425Z,3.90
2019-02-16T21:23:52.978Z,3.90
2019-02-16T21:26:36.486Z,3.80
2019-02-16T21:29:23.033Z,3.80
2019-02-16T21:32:09.883Z,3.80
2019-02-16T21:34:58.065Z,3.70
2019-02-16T21:37:46.380Z,3.60
2019-02-16T21:40:27.247Z,3.60
2019-02-16T21:43:07.320Z,3.50
2019-02-16T21:45:48.767Z,3.50
2019-02-16T21:48:39.971Z,3.40
2019-02-16T21:51:20.788Z,3.40
2019-02-16T21:54:07.315Z,3.30
2019-02-16T21:57:13.829Z,3.30
2019-02-16T21:59:57.009Z,3.30
2019-02-16T22:02:45.179Z,3.30
2019-02-16T22:05:22.548Z,3.30
2019-02-16T22:08:11.324Z,3.20
2019-02-16T22:11:14.847Z,3.20
2019-02-16T22:13:43.988Z,3.20
2019-02-16T22:16:13.132Z,3.20
2019-02-16T22:18:42.327Z,3.10
2019-02-16T22:21:11.465Z,3.10
2019-02-16T22:23:40.711Z,3.10
2019-02-16T22:26:09.920Z,3.00
2019-02-16T22:28:39.097Z,3.00
2019-02-16T22:31:08.244Z,3.00
2019-02-16T22:33:37.452Z,2.90
2019-02-16T22:36:06.587Z,2.80
2019-02-16T22:38:35.756Z,2.80
2019-02-16T22:41:04.950Z,2.70
2019-02-16T22:43:34.419Z,2.70
2019-02-16T22:46:03.569Z,2.60
2019-02-16T22:48:32.678Z,2.60
2019-02-16T22:51:01.842Z,2.50
2019-02-16T22:53:30.972Z,2.50
2019-02-16T22:56:00.104Z,2.40
2019-02-16T22:58:29.407Z,2.30
2019-02-16T23:00:58.803Z,2.30
2019-02-16T23:03:27.947Z,2.20
2019-02-16T23:05:57.098Z,2.20
2019-02-16T23:08:26.366Z,2.20
2019-02-16T23:10:55.520Z,2.10
2019-02-16T23:13:24.660Z,2.10
2019-02-16T23:15:53.820Z,2.10
2019-02-16T23:18:22.948Z,2.10
2019-02-16T23:20:52.105Z,2.10
2019-02-16T23:23:21.288Z,2.10
2019-02-16T23:25:50.408Z,2.10
2019-02-16T23:28:19.543Z,2.00
2019-02-16T23:30:48.674Z,2.00
2019-02-16T23:33:17.840Z,1.90
2019-02-16T23:35:47.028Z,1.90
2019-02-16T23:38:16.174Z,1.80
2019-02-16T23:40:45.303Z,1.70
2019-02-16T23:43:14.505Z,1.70
2019-02-16T23:45:43.721Z,1.70
2019-02-16T23:48:12.881Z,1.70
2019-02-16T23:50:42.016Z,1.70
2019-02-16T23:53:11.228Z,1.60
2019-02-16T23:55:40.379Z,1.60
2019-02-16T23:58:09.619Z,1.60
